sensor_id;sensor_type;location;lat;lon;timestamp;temperature;humidity
19799;DHT22;10059;59.850;10.454;2023-06-26T00:02:13;16.00;99.90
19799;DHT22;10059;59.850;10.454;2023-06-26T00:04:41;16.00;99.90
19799;DHT22;10059;59.850;10.454;2023-06-26T00:07:07;15.80;99.90
19799;DHT22;10059;59.850;10.454;2023-06-26T00:09:34;15.80;99.90
19799;DHT22;10059;59.850;10.454;2023-06-26T00:12:01;15.70;99.90
19799;DHT22;10059;59.850;10.454;2023-06-26T00:14:29;15.70;99.90
19799;DHT22;10059;59.850;10.454;2023-06-26T00:16:56;15.60;99.90
19799;DHT22;10059;59.850;10.454;2023-06-26T00:19:23;15.50;99.90
19799;DHT22;10059;59.850;10.454;2023-06-26T00:21:50;15.60;99.90
19799;DHT22;10059;59.850;10.454;2023-06-26T00:24:17;15.70;99.90
19799;DHT22;10059;59.850;10.454;2023-06-26T00:26:47;15.60;99.90
19799;DHT22;10059;59.850;10.454;2023-06-26T00:29:14;15.50;99.90
19799;DHT22;10059;59.850;10.454;2023-06-26T00:31:42;15.60;99.90
19799;DHT22;10059;59.850;10.454;2023-06-26T00:34:09;15.60;99.90
19799;DHT22;10059;59.850;10.454;2023-06-26T00:36:36;15.50;99.90
19799;DHT22;10059;59.850;10.454;2023-06-26T00:39:02;15.40;99.90
19799;DHT22;10059;59.850;10.454;2023-06-26T00:41:31;15.50;99.90
19799;DHT22;10059;59.850;10.454;2023-06-26T00:43:57;15.50;99.90
19799;DHT22;10059;59.850;10.454;2023-06-26T00:46:24;15.50;99.90
19799;DHT22;10059;59.850;10.454;2023-06-26T00:48:52;15.60;99.90
19799;DHT22;10059;59.850;10.454;2023-06-26T00:51:20;15.60;99.90
19799;DHT22;10059;59.850;10.454;2023-06-26T00:53:48;15.60;99.90
19799;DHT22;10059;59.850;10.454;2023-06-26T00:56:15;15.60;99.90
19799;DHT22;10059;59.850;10.454;2023-06-26T00:58:44;15.60;99.90
19799;DHT22;10059;59.850;10.454;2023-06-26T01:01:11;15.70;99.90
19799;DHT22;10059;59.850;10.454;2023-06-26T01:03:42;15.80;99.90
19799;DHT22;10059;59.850;10.454;2023-06-26T01:06:12;15.80;99.90
19799;DHT22;10059;59.850;10.454;2023-06-26T01:08:41;16.00;99.90
19799;DHT22;10059;59.850;10.454;2023-06-26T01:11:09;16.20;99.90
19799;DHT22;10059;59.850;10.454;2023-06-26T01:13:36;16.20;99.90
19799;DHT22;10059;59.850;10.454;2023-06-26T01:16:04;16.20;99.90
19799;DHT22;10059;59.850;10.454;2023-06-26T01:18:32;16.30;99.90
19799;DHT22;10059;59.850;10.454;2023-06-26T01:21:02;16.10;99.90
19799;DHT22;10059;59.850;10.454;2023-06-26T01:23:37;16.20;99.90
19799;DHT22;10059;59.850;10.454;2023-06-26T01:26:14;16.20;99.90
19799;DHT22;10059;59.850;10.454;2023-06-26T01:28:43;16.20;99.90
19799;DHT22;10059;59.850;10.454;2023-06-26T01:31:11;16.30;99.90
19799;DHT22;10059;59.850;10.454;2023-06-26T01:33:39;16.30;99.90
19799;DHT22;10059;59.850;10.454;2023-06-26T01:36:07;16.30;99.90
19799;DHT22;10059;59.850;10.454;2023-06-26T01:38:34;16.40;99.90
19799;DHT22;10059;59.850;10.454;2023-06-26T01:41:01;16.50;99.90
19799;DHT22;10059;59.850;10.454;2023-06-26T01:43:36;16.60;99.90
19799;DHT22;10059;59.850;10.454;2023-06-26T01:46:14;16.60;99.90
19799;DHT22;10059;59.850;10.454;2023-06-26T01:48:49;16.80;99.90
19799;DHT22;10059;59.850;10.454;2023-06-26T01:51:18;16.70;99.90
19799;DHT22;10059;59.850;10.454;2023-06-26T01:53:46;16.80;99.90
19799;DHT22;10059;59.850;10.454;2023-06-26T01:56:16;16.90;99.90
19799;DHT22;10059;59.850;10.454;2023-06-26T01:58:47;17.00;99.90
19799;DHT22;10059;59.850;10.454;2023-06-26T02:01:14;17.10;99.90
19799;DHT22;10059;59.850;10.454;2023-06-26T02:03:42;17.10;99.90
19799;DHT22;10059;59.850;10.454;2023-06-26T02:06:08;17.10;99.90
19799;DHT22;10059;59.850;10.454;2023-06-26T02:08:35;17.10;99.90
19799;DHT22;10059;59.850;10.454;2023-06-26T02:11:02;17.20;99.90
19799;DHT22;10059;59.850;10.454;2023-06-26T02:13:29;17.10;99.90
19799;DHT22;10059;59.850;10.454;2023-06-26T02:15:57;17.20;99.90
19799;DHT22;10059;59.850;10.454;2023-06-26T02:18:24;17.30;99.90
19799;DHT22;10059;59.850;10.454;2023-06-26T02:20:51;17.30;99.90
19799;DHT22;10059;59.850;10.454;2023-06-26T02:23:18;17.20;99.90
19799;DHT22;10059;59.850;10.454;2023-06-26T02:25:44;17.20;99.90
19799;DHT22;10059;59.850;10.454;2023-06-26T02:28:11;17.30;99.90
19799;DHT22;10059;59.850;10.454;2023-06-26T02:30:38;17.30;99.90
19799;DHT22;10059;59.850;10.454;2023-06-26T02:33:06;17.30;99.90
19799;DHT22;10059;59.850;10.454;2023-06-26T02:35:33;17.30;99.90
19799;DHT22;10059;59.850;10.454;2023-06-26T02:38:00;17.30;99.90
19799;DHT22;10059;59.850;10.454;2023-06-26T02:40:26;17.30;99.90
19799;DHT22;10059;59.850;10.454;2023-06-26T02:42:53;17.40;99.90
19799;DHT22;10059;59.850;10.454;2023-06-26T02:45:20;17.40;99.90
19799;DHT22;10059;59.850;10.454;2023-06-26T02:47:47;17.50;99.90
19799;DHT22;10059;59.850;10.454;2023-06-26T02:50:15;17.40;99.90
19799;DHT22;10059;59.850;10.454;2023-06-26T02:52:42;17.60;99.90
19799;DHT22;10059;59.850;10.454;2023-06-26T02:55:09;17.70;99.90
19799;DHT22;10059;59.850;10.454;2023-06-26T02:57:36;17.50;99.90
19799;DHT22;10059;59.850;10.454;2023-06-26T03:00:03;17.50;99.90
19799;DHT22;10059;59.850;10.454;2023-06-26T03:02:32;17.60;99.90
19799;DHT22;10059;59.850;10.454;2023-06-26T03:04:59;17.70;99.90
19799;DHT22;10059;59.850;10.454;2023-06-26T03:07:27;17.70;99.90
19799;DHT22;10059;59.850;10.454;2023-06-26T03:09:53;17.60;99.90
19799;DHT22;10059;59.850;10.454;2023-06-26T03:12:20;17.70;99.90
19799;DHT22;10059;59.850;10.454;2023-06-26T03:14:47;17.60;99.90
19799;DHT22;10059;59.850;10.454;2023-06-26T03:17:14;17.70;99.90
19799;DHT22;10059;59.850;10.454;2023-06-26T03:19:41;17.60;99.90
19799;DHT22;10059;59.850;10.454;2023-06-26T03:22:08;17.60;99.90
19799;DHT22;10059;59.850;10.454;2023-06-26T03:24:36;17.70;99.90
19799;DHT22;10059;59.850;10.454;2023-06-26T03:27:03;17.60;99.90
19799;DHT22;10059;59.850;10.454;2023-06-26T03:29:30;17.40;99.90
19799;DHT22;10059;59.850;10.454;2023-06-26T03:31:57;17.20;99.90
19799;DHT22;10059;59.850;10.454;2023-06-26T03:34:23;17.40;99.90
19799;DHT22;10059;59.850;10.454;2023-06-26T03:36:50;17.50;99.90
19799;DHT22;10059;59.850;10.454;2023-06-26T03:39:17;17.40;99.90
19799;DHT22;10059;59.850;10.454;2023-06-26T03:41:45;17.60;99.90
19799;DHT22;10059;59.850;10.454;2023-06-26T03:44:12;17.60;99.90
19799;DHT22;10059;59.850;10.454;2023-06-26T03:46:39;17.50;99.90
19799;DHT22;10059;59.850;10.454;2023-06-26T03:49:06;17.40;99.90
19799;DHT22;10059;59.850;10.454;2023-06-26T03:51:32;17.40;99.90
19799;DHT22;10059;59.850;10.454;2023-06-26T03:53:59;17.40;99.90
19799;DHT22;10059;59.850;10.454;2023-06-26T03:56:26;17.20;99.90
19799;DHT22;10059;59.850;10.454;2023-06-26T03:58:54;17.40;99.90
19799;DHT22;10059;59.850;10.454;2023-06-26T04:01:21;17.40;99.90
19799;DHT22;10059;59.850;10.454;2023-06-26T04:03:48;17.50;99.90
19799;DHT22;10059;59.850;10.454;2023-06-26T04:06:15;17.60;99.90
19799;DHT22;10059;59.850;10.454;2023-06-26T04:08:41;17.60;99.90
19799;DHT22;10059;59.850;10.454;2023-06-26T04:11:08;17.80;99.90
19799;DHT22;10059;59.850;10.454;2023-06-26T04:13:35;17.80;99.90
19799;DHT22;10059;59.850;10.454;2023-06-26T04:16:04;17.60;99.90
19799;DHT22;10059;59.850;10.454;2023-06-26T04:18:31;17.60;99.90
19799;DHT22;10059;59.850;10.454;2023-06-26T04:21:09;17.40;99.90
19799;DHT22;10059;59.850;10.454;2023-06-26T04:23:37;17.50;99.90
19799;DHT22;10059;59.850;10.454;2023-06-26T04:26:04;17.60;99.90
19799;DHT22;10059;59.850;10.454;2023-06-26T04:28:31;17.70;99.90
19799;DHT22;10059;59.850;10.454;2023-06-26T04:30:58;17.80;99.90
19799;DHT22;10059;59.850;10.454;2023-06-26T04:33:27;17.80;99.90
19799;DHT22;10059;59.850;10.454;2023-06-26T04:35:53;17.90;99.90
19799;DHT22;10059;59.850;10.454;2023-06-26T04:38:20;18.00;99.90
19799;DHT22;10059;59.850;10.454;2023-06-26T04:40:48;18.10;99.90
19799;DHT22;10059;59.850;10.454;2023-06-26T04:43:15;18.00;99.90
19799;DHT22;10059;59.850;10.454;2023-06-26T04:45:42;18.00;99.90
19799;DHT22;10059;59.850;10.454;2023-06-26T04:48:08;17.90;99.90
19799;DHT22;10059;59.850;10.454;2023-06-26T04:50:37;17.90;99.90
19799;DHT22;10059;59.850;10.454;2023-06-26T04:53:03;17.90;99.90
19799;DHT22;10059;59.850;10.454;2023-06-26T04:55:30;18.00;99.90
19799;DHT22;10059;59.850;10.454;2023-06-26T04:57:57;17.90;99.90
19799;DHT22;10059;59.850;10.454;2023-06-26T05:00:24;18.00;99.90
19799;DHT22;10059;59.850;10.454;2023-06-26T05:02:51;18.10;99.90
19799;DHT22;10059;59.850;10.454;2023-06-26T05:05:26;18.10;99.90
19799;DHT22;10059;59.850;10.454;2023-06-26T05:07:54;18.00;99.90
19799;DHT22;10059;59.850;10.454;2023-06-26T05:10:22;18.10;99.90
19799;DHT22;10059;59.850;10.454;2023-06-26T05:12:48;17.80;99.90
19799;DHT22;10059;59.850;10.454;2023-06-26T05:15:15;17.90;99.90
19799;DHT22;10059;59.850;10.454;2023-06-26T05:17:42;18.10;99.90
19799;DHT22;10059;59.850;10.454;2023-06-26T05:20:10;18.00;99.90
19799;DHT22;10059;59.850;10.454;2023-06-26T05:22:37;18.10;99.90
19799;DHT22;10059;59.850;10.454;2023-06-26T05:25:08;18.10;99.90
19799;DHT22;10059;59.850;10.454;2023-06-26T05:27:36;18.20;99.90
19799;DHT22;10059;59.850;10.454;2023-06-26T05:30:03;18.30;99.90
19799;DHT22;10059;59.850;10.454;2023-06-26T05:32:30;18.50;99.90
19799;DHT22;10059;59.850;10.454;2023-06-26T05:35:02;18.30;99.90
19799;DHT22;10059;59.850;10.454;2023-06-26T05:37:29;18.40;99.90
19799;DHT22;10059;59.850;10.454;2023-06-26T05:39:57;18.30;99.90
19799;DHT22;10059;59.850;10.454;2023-06-26T05:42:26;18.30;99.90
19799;DHT22;10059;59.850;10.454;2023-06-26T05:44:53;18.40;99.90
19799;DHT22;10059;59.850;10.454;2023-06-26T05:47:20;18.30;99.90
19799;DHT22;10059;59.850;10.454;2023-06-26T05:49:47;18.40;99.90
19799;DHT22;10059;59.850;10.454;2023-06-26T05:52:14;18.40;99.90
19799;DHT22;10059;59.850;10.454;2023-06-26T05:54:42;18.40;99.90
19799;DHT22;10059;59.850;10.454;2023-06-26T05:57:09;18.30;99.90
19799;DHT22;10059;59.850;10.454;2023-06-26T05:59:40;18.30;99.90
19799;DHT22;10059;59.850;10.454;2023-06-26T06:02:07;18.30;99.90
19799;DHT22;10059;59.850;10.454;2023-06-26T06:04:33;18.20;99.90
19799;DHT22;10059;59.850;10.454;2023-06-26T06:07:03;18.30;99.90
19799;DHT22;10059;59.850;10.454;2023-06-26T06:09:29;18.40;99.90
19799;DHT22;10059;59.850;10.454;2023-06-26T06:11:59;18.40;99.90
19799;DHT22;10059;59.850;10.454;2023-06-26T06:14:26;18.60;99.90
19799;DHT22;10059;59.850;10.454;2023-06-26T06:16:55;18.60;99.90
19799;DHT22;10059;59.850;10.454;2023-06-26T06:19:23;18.70;99.90
19799;DHT22;10059;59.850;10.454;2023-06-26T06:21:50;18.80;99.90
19799;DHT22;10059;59.850;10.454;2023-06-26T06:24:17;18.90;99.90
19799;DHT22;10059;59.850;10.454;2023-06-26T06:26:44;19.00;99.90
19799;DHT22;10059;59.850;10.454;2023-06-26T06:29:11;19.00;99.90
19799;DHT22;10059;59.850;10.454;2023-06-26T06:31:37;19.00;99.90
19799;DHT22;10059;59.850;10.454;2023-06-26T06:34:06;19.20;99.90
19799;DHT22;10059;59.850;10.454;2023-06-26T06:36:33;19.10;99.90
19799;DHT22;10059;59.850;10.454;2023-06-26T06:39:00;19.10;99.90
19799;DHT22;10059;59.850;10.454;2023-06-26T06:41:27;19.10;99.90
19799;DHT22;10059;59.850;10.454;2023-06-26T06:43:53;19.20;99.90
19799;DHT22;10059;59.850;10.454;2023-06-26T06:46:20;19.40;99.90
19799;DHT22;10059;59.850;10.454;2023-06-26T06:48:47;19.50;99.90
19799;DHT22;10059;59.850;10.454;2023-06-26T06:51:15;19.40;99.90
19799;DHT22;10059;59.850;10.454;2023-06-26T06:53:42;19.30;99.90
19799;DHT22;10059;59.850;10.454;2023-06-26T06:56:09;19.40;99.90
19799;DHT22;10059;59.850;10.454;2023-06-26T06:58:37;19.70;99.90
19799;DHT22;10059;59.850;10.454;2023-06-26T07:01:04;19.70;99.90
19799;DHT22;10059;59.850;10.454;2023-06-26T07:03:30;19.70;99.90
19799;DHT22;10059;59.850;10.454;2023-06-26T07:05:57;19.50;99.90
19799;DHT22;10059;59.850;10.454;2023-06-26T07:08:25;19.60;99.90
19799;DHT22;10059;59.850;10.454;2023-06-26T07:10:52;19.80;99.90
19799;DHT22;10059;59.850;10.454;2023-06-26T07:13:19;19.90;99.90
19799;DHT22;10059;59.850;10.454;2023-06-26T07:15:46;20.30;99.90
19799;DHT22;10059;59.850;10.454;2023-06-26T07:18:13;20.40;99.90
19799;DHT22;10059;59.850;10.454;2023-06-26T07:20:40;20.60;99.90
19799;DHT22;10059;59.850;10.454;2023-06-26T07:23:07;21.10;99.90
19799;DHT22;10059;59.850;10.454;2023-06-26T07:25:36;21.20;99.90
19799;DHT22;10059;59.850;10.454;2023-06-26T07:28:06;21.10;99.90
19799;DHT22;10059;59.850;10.454;2023-06-26T07:30:36;21.60;99.90
19799;DHT22;10059;59.850;10.454;2023-06-26T07:33:05;21.90;99.90
19799;DHT22;10059;59.850;10.454;2023-06-26T07:35:31;21.80;99.90
19799;DHT22;10059;59.850;10.454;2023-06-26T07:37:58;21.90;99.90
19799;DHT22;10059;59.850;10.454;2023-06-26T07:40:26;21.40;99.90
19799;DHT22;10059;59.850;10.454;2023-06-26T07:42:54;21.50;99.90
19799;DHT22;10059;59.850;10.454;2023-06-26T07:45:21;21.90;99.90
19799;DHT22;10059;59.850;10.454;2023-06-26T07:47:47;22.50;99.90
19799;DHT22;10059;59.850;10.454;2023-06-26T07:50:14;23.10;99.90
19799;DHT22;10059;59.850;10.454;2023-06-26T07:52:47;23.70;99.90
19799;DHT22;10059;59.850;10.454;2023-06-26T07:55:14;24.50;99.90
19799;DHT22;10059;59.850;10.454;2023-06-26T07:57:41;24.60;99.90
19799;DHT22;10059;59.850;10.454;2023-06-26T08:00:10;24.90;99.90
19799;DHT22;10059;59.850;10.454;2023-06-26T08:02:37;25.40;99.90
19799;DHT22;10059;59.850;10.454;2023-06-26T08:05:04;25.00;99.90
19799;DHT22;10059;59.850;10.454;2023-06-26T08:07:31;24.60;99.90
19799;DHT22;10059;59.850;10.454;2023-06-26T08:09:58;24.10;99.90
19799;DHT22;10059;59.850;10.454;2023-06-26T08:12:25;24.20;99.90
19799;DHT22;10059;59.850;10.454;2023-06-26T08:14:51;24.10;99.90
19799;DHT22;10059;59.850;10.454;2023-06-26T08:17:20;24.80;99.90
19799;DHT22;10059;59.850;10.454;2023-06-26T08:19:46;25.30;99.90
19799;DHT22;10059;59.850;10.454;2023-06-26T08:22:13;25.60;99.90
19799;DHT22;10059;59.850;10.454;2023-06-26T08:24:40;25.60;99.90
19799;DHT22;10059;59.850;10.454;2023-06-26T08:27:07;26.40;99.90
19799;DHT22;10059;59.850;10.454;2023-06-26T08:29:34;26.30;99.90
19799;DHT22;10059;59.850;10.454;2023-06-26T08:32:01;25.40;99.90
19799;DHT22;10059;59.850;10.454;2023-06-26T08:34:30;25.00;99.90
19799;DHT22;10059;59.850;10.454;2023-06-26T08:36:56;25.20;99.90
19799;DHT22;10059;59.850;10.454;2023-06-26T08:39:23;24.90;99.90
19799;DHT22;10059;59.850;10.454;2023-06-26T08:41:50;25.40;99.90
19799;DHT22;10059;59.850;10.454;2023-06-26T08:44:17;26.10;99.90
19799;DHT22;10059;59.850;10.454;2023-06-26T08:46:44;25.40;99.90
19799;DHT22;10059;59.850;10.454;2023-06-26T08:49:17;25.20;99.90
19799;DHT22;10059;59.850;10.454;2023-06-26T08:51:51;25.30;99.90
19799;DHT22;10059;59.850;10.454;2023-06-26T08:54:21;25.10;99.90
19799;DHT22;10059;59.850;10.454;2023-06-26T08:56:50;25.80;99.90
19799;DHT22;10059;59.850;10.454;2023-06-26T08:59:18;26.00;99.90
19799;DHT22;10059;59.850;10.454;2023-06-26T09:01:45;26.00;99.90
19799;DHT22;10059;59.850;10.454;2023-06-26T09:04:12;26.10;99.90
19799;DHT22;10059;59.850;10.454;2023-06-26T09:06:39;26.20;99.90
19799;DHT22;10059;59.850;10.454;2023-06-26T09:09:08;26.60;99.90
19799;DHT22;10059;59.850;10.454;2023-06-26T09:11:36;26.90;99.90
19799;DHT22;10059;59.850;10.454;2023-06-26T09:14:02;26.90;99.90
19799;DHT22;10059;59.850;10.454;2023-06-26T09:16:31;26.70;99.90
19799;DHT22;10059;59.850;10.454;2023-06-26T09:18:58;26.10;99.90
19799;DHT22;10059;59.850;10.454;2023-06-26T09:21:25;26.10;99.90
19799;DHT22;10059;59.850;10.454;2023-06-26T09:23:52;26.50;99.90
19799;DHT22;10059;59.850;10.454;2023-06-26T09:26:21;26.40;99.90
19799;DHT22;10059;59.850;10.454;2023-06-26T09:28:49;26.50;99.90
19799;DHT22;10059;59.850;10.454;2023-06-26T09:31:17;26.50;99.90
19799;DHT22;10059;59.850;10.454;2023-06-26T09:33:46;25.70;99.90
19799;DHT22;10059;59.850;10.454;2023-06-26T09:36:19;26.40;99.90
19799;DHT22;10059;59.850;10.454;2023-06-26T09:38:47;27.00;99.90
19799;DHT22;10059;59.850;10.454;2023-06-26T09:41:16;28.10;99.90
19799;DHT22;10059;59.850;10.454;2023-06-26T09:43:47;28.30;99.90
19799;DHT22;10059;59.850;10.454;2023-06-26T09:46:15;27.80;99.90
19799;DHT22;10059;59.850;10.454;2023-06-26T09:48:43;28.00;99.90
19799;DHT22;10059;59.850;10.454;2023-06-26T09:51:10;28.20;99.90
19799;DHT22;10059;59.850;10.454;2023-06-26T09:53:37;27.90;99.90
19799;DHT22;10059;59.850;10.454;2023-06-26T09:56:07;27.30;99.90
19799;DHT22;10059;59.850;10.454;2023-06-26T09:58:34;27.20;99.90
19799;DHT22;10059;59.850;10.454;2023-06-26T10:01:02;27.30;99.90
19799;DHT22;10059;59.850;10.454;2023-06-26T10:03:29;27.00;99.90
19799;DHT22;10059;59.850;10.454;2023-06-26T10:05:57;27.60;99.90
19799;DHT22;10059;59.850;10.454;2023-06-26T10:08:27;28.40;99.90
19799;DHT22;10059;59.850;10.454;2023-06-26T10:10:55;28.90;99.90
19799;DHT22;10059;59.850;10.454;2023-06-26T10:13:27;29.30;99.90
19799;DHT22;10059;59.850;10.454;2023-06-26T10:15:54;29.60;99.90
19799;DHT22;10059;59.850;10.454;2023-06-26T10:18:24;29.00;99.90
19799;DHT22;10059;59.850;10.454;2023-06-26T10:20:54;29.00;99.90
19799;DHT22;10059;59.850;10.454;2023-06-26T10:23:22;28.70;99.90
19799;DHT22;10059;59.850;10.454;2023-06-26T10:25:52;28.80;99.90
19799;DHT22;10059;59.850;10.454;2023-06-26T10:28:22;29.20;99.90
19799;DHT22;10059;59.850;10.454;2023-06-26T10:30:50;28.80;99.90
19799;DHT22;10059;59.850;10.454;2023-06-26T10:33:18;29.60;99.90
19799;DHT22;10059;59.850;10.454;2023-06-26T10:35:46;29.60;99.90
19799;DHT22;10059;59.850;10.454;2023-06-26T10:38:13;29.50;99.90
19799;DHT22;10059;59.850;10.454;2023-06-26T10:40:41;29.90;99.90
19799;DHT22;10059;59.850;10.454;2023-06-26T10:43:09;29.00;99.90
19799;DHT22;10059;59.850;10.454;2023-06-26T10:45:36;28.70;99.90
19799;DHT22;10059;59.850;10.454;2023-06-26T10:48:04;28.90;99.90
19799;DHT22;10059;59.850;10.454;2023-06-26T10:50:31;29.20;99.90
19799;DHT22;10059;59.850;10.454;2023-06-26T10:53:15;29.50;99.90
19799;DHT22;10059;59.850;10.454;2023-06-26T10:55:54;30.00;99.90
19799;DHT22;10059;59.850;10.454;2023-06-26T10:58:33;30.00;99.90
19799;DHT22;10059;59.850;10.454;2023-06-26T11:01:19;30.40;99.90
19799;DHT22;10059;59.850;10.454;2023-06-26T11:03:48;29.80;99.90
19799;DHT22;10059;59.850;10.454;2023-06-26T11:06:18;30.00;99.90
19799;DHT22;10059;59.850;10.454;2023-06-26T11:08:46;29.20;99.90
19799;DHT22;10059;59.850;10.454;2023-06-26T11:11:14;29.70;99.90
19799;DHT22;10059;59.850;10.454;2023-06-26T11:13:41;29.50;99.90
19799;DHT22;10059;59.850;10.454;2023-06-26T11:16:08;28.80;99.90
19799;DHT22;10059;59.850;10.454;2023-06-26T11:18:35;29.20;99.90
19799;DHT22;10059;59.850;10.454;2023-06-26T11:21:06;29.40;99.90
19799;DHT22;10059;59.850;10.454;2023-06-26T11:23:34;29.20;99.90
19799;DHT22;10059;59.850;10.454;2023-06-26T11:26:19;29.50;99.90
19799;DHT22;10059;59.850;10.454;2023-06-26T11:28:50;29.90;99.90
19799;DHT22;10059;59.850;10.454;2023-06-26T11:31:24;30.70;99.90
19799;DHT22;10059;59.850;10.454;2023-06-26T11:33:52;30.70;99.90
19799;DHT22;10059;59.850;10.454;2023-06-26T11:36:19;30.50;99.90
19799;DHT22;10059;59.850;10.454;2023-06-26T11:38:46;30.10;99.90
19799;DHT22;10059;59.850;10.454;2023-06-26T11:41:20;31.20;99.90
19799;DHT22;10059;59.850;10.454;2023-06-26T11:43:47;31.50;99.90
19799;DHT22;10059;59.850;10.454;2023-06-26T11:46:16;31.10;99.90
19799;DHT22;10059;59.850;10.454;2023-06-26T11:48:43;31.40;99.90
19799;DHT22;10059;59.850;10.454;2023-06-26T11:51:12;31.00;99.90
19799;DHT22;10059;59.850;10.454;2023-06-26T11:53:40;31.50;99.90
19799;DHT22;10059;59.850;10.454;2023-06-26T11:56:08;31.20;99.90
19799;DHT22;10059;59.850;10.454;2023-06-26T11:58:38;31.00;99.90
19799;DHT22;10059;59.850;10.454;2023-06-26T12:01:19;30.80;99.90
19799;DHT22;10059;59.850;10.454;2023-06-26T12:03:47;31.00;99.90
19799;DHT22;10059;59.850;10.454;2023-06-26T12:06:14;30.40;99.90
19799;DHT22;10059;59.850;10.454;2023-06-26T12:08:42;31.20;99.90
19799;DHT22;10059;59.850;10.454;2023-06-26T12:11:09;32.20;99.90
19799;DHT22;10059;59.850;10.454;2023-06-26T12:13:37;31.30;99.90
19799;DHT22;10059;59.850;10.454;2023-06-26T12:16:05;30.70;99.90
19799;DHT22;10059;59.850;10.454;2023-06-26T12:18:34;31.50;99.90
19799;DHT22;10059;59.850;10.454;2023-06-26T12:21:01;31.30;99.90
19799;DHT22;10059;59.850;10.454;2023-06-26T12:23:32;31.20;99.90
19799;DHT22;10059;59.850;10.454;2023-06-26T12:26:16;30.90;99.90
19799;DHT22;10059;59.850;10.454;2023-06-26T12:28:45;30.80;99.90
19799;DHT22;10059;59.850;10.454;2023-06-26T12:31:13;30.40;99.90
19799;DHT22;10059;59.850;10.454;2023-06-26T12:33:40;29.90;99.90
19799;DHT22;10059;59.850;10.454;2023-06-26T12:36:11;29.60;99.90
19799;DHT22;10059;59.850;10.454;2023-06-26T12:38:37;29.60;99.90
19799;DHT22;10059;59.850;10.454;2023-06-26T12:41:04;30.10;99.90
19799;DHT22;10059;59.850;10.454;2023-06-26T12:43:31;30.20;99.90
19799;DHT22;10059;59.850;10.454;2023-06-26T12:46:00;30.80;99.90
19799;DHT22;10059;59.850;10.454;2023-06-26T12:48:37;30.90;99.90
19799;DHT22;10059;59.850;10.454;2023-06-26T12:51:09;30.00;99.90
19799;DHT22;10059;59.850;10.454;2023-06-26T12:53:36;29.50;99.90
19799;DHT22;10059;59.850;10.454;2023-06-26T12:56:03;28.90;99.90
19799;DHT22;10059;59.850;10.454;2023-06-26T12:58:30;28.30;99.90
19799;DHT22;10059;59.850;10.454;2023-06-26T13:00:56;27.80;99.90
19799;DHT22;10059;59.850;10.454;2023-06-26T13:03:25;27.70;99.90
19799;DHT22;10059;59.850;10.454;2023-06-26T13:05:52;27.60;99.90
19799;DHT22;10059;59.850;10.454;2023-06-26T13:08:19;26.80;99.90
19799;DHT22;10059;59.850;10.454;2023-06-26T13:10:46;26.70;99.90
19799;DHT22;10059;59.850;10.454;2023-06-26T13:13:13;26.60;99.90
19799;DHT22;10059;59.850;10.454;2023-06-26T13:15:39;26.70;99.90
19799;DHT22;10059;59.850;10.454;2023-06-26T13:18:06;26.80;99.90
19799;DHT22;10059;59.850;10.454;2023-06-26T13:20:34;26.90;99.90
19799;DHT22;10059;59.850;10.454;2023-06-26T13:23:01;26.90;99.90
19799;DHT22;10059;59.850;10.454;2023-06-26T13:25:28;26.90;99.90
19799;DHT22;10059;59.850;10.454;2023-06-26T13:27:55;26.90;99.90
19799;DHT22;10059;59.850;10.454;2023-06-26T13:30:22;27.60;99.90
19799;DHT22;10059;59.850;10.454;2023-06-26T13:32:49;28.20;99.90
19799;DHT22;10059;59.850;10.454;2023-06-26T13:35:16;28.80;99.90
19799;DHT22;10059;59.850;10.454;2023-06-26T13:37:45;28.90;99.90
19799;DHT22;10059;59.850;10.454;2023-06-26T13:40:13;28.70;99.90
19799;DHT22;10059;59.850;10.454;2023-06-26T13:42:40;28.30;99.90
19799;DHT22;10059;59.850;10.454;2023-06-26T13:45:08;28.20;99.90
19799;DHT22;10059;59.850;10.454;2023-06-26T13:47:35;28.20;99.90
19799;DHT22;10059;59.850;10.454;2023-06-26T13:50:07;28.40;99.90
19799;DHT22;10059;59.850;10.454;2023-06-26T13:52:34;29.00;99.90
19799;DHT22;10059;59.850;10.454;2023-06-26T13:55:02;28.90;99.90
19799;DHT22;10059;59.850;10.454;2023-06-26T13:57:30;29.10;99.90
19799;DHT22;10059;59.850;10.454;2023-06-26T13:59:56;29.30;99.90
19799;DHT22;10059;59.850;10.454;2023-06-26T14:02:23;29.10;99.90
19799;DHT22;10059;59.850;10.454;2023-06-26T14:04:50;29.10;99.90
19799;DHT22;10059;59.850;10.454;2023-06-26T14:07:17;28.80;99.90
19799;DHT22;10059;59.850;10.454;2023-06-26T14:09:44;29.10;99.90
19799;DHT22;10059;59.850;10.454;2023-06-26T14:12:12;29.00;99.90
19799;DHT22;10059;59.850;10.454;2023-06-26T14:14:39;28.70;99.90
19799;DHT22;10059;59.850;10.454;2023-06-26T14:17:05;28.10;99.90
19799;DHT22;10059;59.850;10.454;2023-06-26T14:19:34;27.70;99.90
19799;DHT22;10059;59.850;10.454;2023-06-26T14:22:01;27.80;99.90
19799;DHT22;10059;59.850;10.454;2023-06-26T14:24:28;27.10;99.90
19799;DHT22;10059;59.850;10.454;2023-06-26T14:26:54;26.80;99.90
19799;DHT22;10059;59.850;10.454;2023-06-26T14:29:23;26.90;99.90
19799;DHT22;10059;59.850;10.454;2023-06-26T14:31:50;27.00;99.90
19799;DHT22;10059;59.850;10.454;2023-06-26T14:34:16;26.50;99.90
19799;DHT22;10059;59.850;10.454;2023-06-26T14:36:43;26.20;99.90
19799;DHT22;10059;59.850;10.454;2023-06-26T14:39:10;26.20;99.90
19799;DHT22;10059;59.850;10.454;2023-06-26T14:41:37;26.00;99.90
19799;DHT22;10059;59.850;10.454;2023-06-26T14:44:04;25.70;99.90
19799;DHT22;10059;59.850;10.454;2023-06-26T14:46:35;25.80;99.90
19799;DHT22;10059;59.850;10.454;2023-06-26T14:49:02;26.00;99.90
19799;DHT22;10059;59.850;10.454;2023-06-26T14:51:29;25.80;99.90
19799;DHT22;10059;59.850;10.454;2023-06-26T14:53:57;25.60;99.90
19799;DHT22;10059;59.850;10.454;2023-06-26T14:56:24;25.80;99.90
19799;DHT22;10059;59.850;10.454;2023-06-26T14:58:51;26.00;99.90
19799;DHT22;10059;59.850;10.454;2023-06-26T15:01:18;25.80;99.90
19799;DHT22;10059;59.850;10.454;2023-06-26T15:03:47;26.00;99.90
19799;DHT22;10059;59.850;10.454;2023-06-26T15:06:14;26.00;99.90
19799;DHT22;10059;59.850;10.454;2023-06-26T15:08:40;26.00;99.90
19799;DHT22;10059;59.850;10.454;2023-06-26T15:11:07;25.50;99.90
19799;DHT22;10059;59.850;10.454;2023-06-26T15:13:34;25.30;99.90
19799;DHT22;10059;59.850;10.454;2023-06-26T15:16:01;25.50;99.90
19799;DHT22;10059;59.850;10.454;2023-06-26T15:18:28;25.70;99.90
19799;DHT22;10059;59.850;10.454;2023-06-26T15:20:56;25.70;99.90